sensor_id;sensor_type;location;lat;lon;timestamp;pressure;altitude;pressure_sealevel;temperature;humidity
77702;BME280;66868;42.708;23.404;2023-10-09T00:00:11;95655.47;;;19.03;nan
77702;BME280;66868;42.708;23.404;2023-10-09T00:02:54;95648.53;;;18.93;nan
77702;BME280;66868;42.708;23.404;2023-10-09T00:05:20;95660.41;;;18.94;nan
77702;BME280;66868;42.708;23.404;2023-10-09T00:07:57;95665.28;;;18.97;nan
77702;BME280;66868;42.708;23.404;2023-10-09T00:10:23;95663.66;;;18.96;nan
77702;BME280;66868;42.708;23.404;2023-10-09T00:12:50;95658.09;;;18.91;nan
77702;BME280;66868;42.708;23.404;2023-10-09T00:15:16;95670.38;;;18.88;nan
77702;BME280;66868;42.708;23.404;2023-10-09T00:17:44;95661.41;;;18.82;nan
77702;BME280;66868;42.708;23.404;2023-10-09T00:20:12;95664.72;;;18.73;nan
77702;BME280;66868;42.708;23.404;2023-10-09T00:22:45;95645.78;;;18.65;nan
77702;BME280;66868;42.708;23.404;2023-10-09T00:25:11;95663.13;;;18.72;nan
77702;BME280;66868;42.708;23.404;2023-10-09T00:27:42;95665.69;;;18.72;nan
77702;BME280;66868;42.708;23.404;2023-10-09T00:30:12;95660.78;;;18.69;nan
77702;BME280;66868;42.708;23.404;2023-10-09T00:32:44;95654.78;;;18.59;nan
77702;BME280;66868;42.708;23.404;2023-10-09T00:35:19;95646.88;;;18.51;nan
77702;BME280;66868;42.708;23.404;2023-10-09T00:38:03;95602.34;;;18.10;nan
77702;BME280;66868;42.708;23.404;2023-10-09T00:40:50;95661.75;;;18.36;nan
77702;BME280;66868;42.708;23.404;2023-10-09T00:43:29;95663.50;;;18.36;nan
77702;BME280;66868;42.708;23.404;2023-10-09T00:45:59;95683.13;;;18.26;nan
77702;BME280;66868;42.708;23.404;2023-10-09T00:48:28;95662.47;;;18.06;nan
77702;BME280;66868;42.708;23.404;2023-10-09T00:51:04;95678.41;;;18.10;nan
77702;BME280;66868;42.708;23.404;2023-10-09T00:56:09;95655.06;;;17.92;nan
77702;BME280;66868;42.708;23.404;2023-10-09T00:58:47;95644.03;;;17.70;nan
77702;BME280;66868;42.708;23.404;2023-10-09T01:01:15;95652.63;;;17.57;nan
77702;BME280;66868;42.708;23.404;2023-10-09T01:03:41;95686.06;;;17.67;nan
77702;BME280;66868;42.708;23.404;2023-10-09T01:06:08;95692.34;;;17.63;nan
77702;BME280;66868;42.708;23.404;2023-10-09T01:08:34;95671.88;;;17.52;nan
77702;BME280;66868;42.708;23.404;2023-10-09T01:11:16;95678.25;;;17.35;nan
77702;BME280;66868;42.708;23.404;2023-10-09T01:13:55;95700.94;;;17.40;nan
77702;BME280;66868;42.708;23.404;2023-10-09T01:16:38;95721.19;;;17.32;nan
77702;BME280;66868;42.708;23.404;2023-10-09T01:19:03;95718.41;;;17.23;nan
77702;BME280;66868;42.708;23.404;2023-10-09T01:21:31;95712.72;;;17.20;nan
77702;BME280;66868;42.708;23.404;2023-10-09T01:23:57;95718.38;;;17.01;nan
77702;BME280;66868;42.708;23.404;2023-10-09T01:26:29;95707.19;;;17.02;nan
77702;BME280;66868;42.708;23.404;2023-10-09T01:29:03;95722.44;;;17.04;nan
77702;BME280;66868;42.708;23.404;2023-10-09T01:31:29;95717.56;;;17.01;nan
77702;BME280;66868;42.708;23.404;2023-10-09T01:33:59;95720.47;;;16.96;nan
77702;BME280;66868;42.708;23.404;2023-10-09T01:36:25;95731.38;;;16.87;nan
77702;BME280;66868;42.708;23.404;2023-10-09T01:39:00;95719.94;;;16.80;nan
77702;BME280;66868;42.708;23.404;2023-10-09T01:41:46;95742.47;;;16.75;nan
77702;BME280;66868;42.708;23.404;2023-10-09T01:44:12;95755.25;;;16.64;nan
77702;BME280;66868;42.708;23.404;2023-10-09T01:46:38;95744.34;;;16.49;nan
77702;BME280;66868;42.708;23.404;2023-10-09T01:49:03;95740.00;;;16.39;nan
77702;BME280;66868;42.708;23.404;2023-10-09T01:51:42;95746.97;;;16.37;nan
77702;BME280;66868;42.708;23.404;2023-10-09T01:54:07;95758.59;;;16.41;nan
77702;BME280;66868;42.708;23.404;2023-10-09T01:56:32;95756.97;;;16.40;nan
77702;BME280;66868;42.708;23.404;2023-10-09T01:59:02;95758.38;;;16.44;nan
77702;BME280;66868;42.708;23.404;2023-10-09T02:01:31;95739.41;;;16.35;nan
77702;BME280;66868;42.708;23.404;2023-10-09T02:03:57;95764.13;;;16.34;nan
77702;BME280;66868;42.708;23.404;2023-10-09T02:06:30;95767.56;;;16.22;nan
77702;BME280;66868;42.708;23.404;2023-10-09T02:08:57;95767.75;;;16.19;nan
77702;BME280;66868;42.708;23.404;2023-10-09T02:11:24;95774.06;;;16.03;nan
77702;BME280;66868;42.708;23.404;2023-10-09T02:14:06;95778.75;;;15.96;nan
77702;BME280;66868;42.708;23.404;2023-10-09T02:16:45;95697.03;;;15.47;nan
77702;BME280;66868;42.708;23.404;2023-10-09T02:19:27;95781.94;;;15.87;nan
77702;BME280;66868;42.708;23.404;2023-10-09T02:22:01;95777.59;;;15.76;nan
77702;BME280;66868;42.708;23.404;2023-10-09T02:24:31;95774.72;;;15.68;nan
77702;BME280;66868;42.708;23.404;2023-10-09T02:27:18;95775.56;;;15.56;nan
77702;BME280;66868;42.708;23.404;2023-10-09T02:30:16;95791.25;;;15.50;nan
77702;BME280;66868;42.708;23.404;2023-10-09T02:32:53;95794.31;;;15.42;nan
77702;BME280;66868;42.708;23.404;2023-10-09T02:35:24;95803.19;;;15.49;nan
77702;BME280;66868;42.708;23.404;2023-10-09T02:38:03;95797.19;;;15.38;nan
77702;BME280;66868;42.708;23.404;2023-10-09T02:40:33;95804.31;;;15.45;nan
77702;BME280;66868;42.708;23.404;2023-10-09T02:43:07;95798.91;;;15.37;nan
77702;BME280;66868;42.708;23.404;2023-10-09T02:45:37;95807.59;;;15.35;nan
77702;BME280;66868;42.708;23.404;2023-10-09T02:48:18;95803.91;;;15.26;nan
77702;BME280;66868;42.708;23.404;2023-10-09T02:50:50;95787.75;;;15.00;nan
77702;BME280;66868;42.708;23.404;2023-10-09T02:53:16;95789.09;;;14.93;nan
77702;BME280;66868;42.708;23.404;2023-10-09T02:55:45;95791.19;;;14.87;nan
77702;BME280;66868;42.708;23.404;2023-10-09T02:58:53;95801.19;;;14.90;nan
77702;BME280;66868;42.708;23.404;2023-10-09T03:01:19;95835.47;;;14.98;nan
77702;BME280;66868;42.708;23.404;2023-10-09T03:03:45;95836.72;;;14.93;nan
77702;BME280;66868;42.708;23.404;2023-10-09T03:06:16;95831.78;;;14.90;nan
77702;BME280;66868;42.708;23.404;2023-10-09T03:08:50;95837.47;;;14.81;nan
77702;BME280;66868;42.708;23.404;2023-10-09T03:11:15;95829.81;;;14.81;nan
77702;BME280;66868;42.708;23.404;2023-10-09T03:13:43;95832.25;;;14.70;nan
77702;BME280;66868;42.708;23.404;2023-10-09T03:16:10;95796.84;;;14.38;nan
77702;BME280;66868;42.708;23.404;2023-10-09T03:18:47;95819.19;;;14.47;nan
77702;BME280;66868;42.708;23.404;2023-10-09T03:21:14;95854.47;;;14.68;nan
77702;BME280;66868;42.708;23.404;2023-10-09T03:23:46;95851.09;;;14.67;nan
77702;BME280;66868;42.708;23.404;2023-10-09T03:26:15;95859.03;;;14.63;nan
77702;BME280;66868;42.708;23.404;2023-10-09T03:28:44;95873.94;;;14.69;nan
77702;BME280;66868;42.708;23.404;2023-10-09T03:31:10;95857.97;;;14.52;nan
77702;BME280;66868;42.708;23.404;2023-10-09T03:33:36;95836.72;;;14.39;nan
77702;BME280;66868;42.708;23.404;2023-10-09T03:36:01;95867.16;;;14.55;nan
77702;BME280;66868;42.708;23.404;2023-10-09T03:38:27;95854.66;;;14.38;nan
77702;BME280;66868;42.708;23.404;2023-10-09T03:41:01;95854.91;;;14.33;nan
77702;BME280;66868;42.708;23.404;2023-10-09T03:43:26;95869.13;;;14.37;nan
77702;BME280;66868;42.708;23.404;2023-10-09T03:45:57;95862.19;;;14.39;nan
77702;BME280;66868;42.708;23.404;2023-10-09T03:48:24;95878.47;;;14.37;nan
77702;BME280;66868;42.708;23.404;2023-10-09T03:50:57;95872.81;;;14.32;nan
77702;BME280;66868;42.708;23.404;2023-10-09T03:53:37;95870.19;;;14.19;nan
77702;BME280;66868;42.708;23.404;2023-10-09T03:56:08;95889.19;;;14.28;nan
77702;BME280;66868;42.708;23.404;2023-10-09T03:58:42;95865.47;;;14.13;nan
77702;BME280;66868;42.708;23.404;2023-10-09T04:01:14;95886.94;;;14.23;nan
77702;BME280;66868;42.708;23.404;2023-10-09T04:03:49;95879.84;;;14.14;nan
77702;BME280;66868;42.708;23.404;2023-10-09T04:06:23;95882.75;;;14.08;nan
77702;BME280;66868;42.708;23.404;2023-10-09T04:08:49;95888.41;;;13.99;nan
77702;BME280;66868;42.708;23.404;2023-10-09T04:11:15;95870.09;;;13.92;nan
77702;BME280;66868;42.708;23.404;2023-10-09T04:13:43;95888.19;;;14.02;nan
77702;BME280;66868;42.708;23.404;2023-10-09T04:16:11;95878.56;;;13.93;nan
77702;BME280;66868;42.708;23.404;2023-10-09T04:18:58;95889.28;;;13.84;nan
77702;BME280;66868;42.708;23.404;2023-10-09T04:21:24;95876.41;;;13.73;nan
77702;BME280;66868;42.708;23.404;2023-10-09T04:24:07;95868.66;;;13.74;nan
77702;BME280;66868;42.708;23.404;2023-10-09T04:26:50;95892.38;;;13.75;nan
77702;BME280;66868;42.708;23.404;2023-10-09T04:29:22;95890.03;;;13.71;nan
77702;BME280;66868;42.708;23.404;2023-10-09T04:32:03;95890.38;;;13.65;nan
77702;BME280;66868;42.708;23.404;2023-10-09T04:34:33;95873.84;;;13.58;nan
77702;BME280;66868;42.708;23.404;2023-10-09T04:37:03;95906.00;;;13.73;nan
77702;BME280;66868;42.708;23.404;2023-10-09T04:39:34;95897.66;;;13.71;nan
77702;BME280;66868;42.708;23.404;2023-10-09T04:41:59;95880.56;;;13.59;nan
77702;BME280;66868;42.708;23.404;2023-10-09T04:45:05;95884.72;;;13.60;nan
77702;BME280;66868;42.708;23.404;2023-10-09T04:47:35;95885.66;;;13.59;nan
77702;BME280;66868;42.708;23.404;2023-10-09T04:50:08;95895.47;;;13.65;nan
77702;BME280;66868;42.708;23.404;2023-10-09T04:53:00;95895.56;;;13.64;nan
77702;BME280;66868;42.708;23.404;2023-10-09T04:55:44;95882.28;;;13.59;nan
77702;BME280;66868;42.708;23.404;2023-10-09T04:58:20;95883.19;;;13.58;nan
77702;BME280;66868;42.708;23.404;2023-10-09T05:00:53;95903.72;;;13.69;nan
77702;BME280;66868;42.708;23.404;2023-10-09T05:03:24;95891.72;;;13.57;nan
77702;BME280;66868;42.708;23.404;2023-10-09T05:05:51;95901.72;;;13.60;nan
77702;BME280;66868;42.708;23.404;2023-10-09T05:08:24;95919.44;;;13.61;nan
77702;BME280;66868;42.708;23.404;2023-10-09T05:13:25;95935.78;;;13.57;nan
77702;BME280;66868;42.708;23.404;2023-10-09T05:16:12;95929.50;;;13.49;nan
77702;BME280;66868;42.708;23.404;2023-10-09T05:18:47;95932.78;;;13.51;nan
77702;BME280;66868;42.708;23.404;2023-10-09T05:21:35;95930.34;;;13.49;nan
77702;BME280;66868;42.708;23.404;2023-10-09T05:24:02;95938.69;;;13.51;nan
77702;BME280;66868;42.708;23.404;2023-10-09T05:26:41;95951.66;;;13.47;nan
77702;BME280;66868;42.708;23.404;2023-10-09T05:32:05;95930.69;;;13.27;nan
77702;BME280;66868;42.708;23.404;2023-10-09T05:34:46;95956.28;;;13.40;nan
77702;BME280;66868;42.708;23.404;2023-10-09T05:37:24;95930.97;;;13.23;nan
77702;BME280;66868;42.708;23.404;2023-10-09T05:39:51;95938.75;;;13.20;nan
77702;BME280;66868;42.708;23.404;2023-10-09T05:42:32;95968.78;;;13.29;nan
77702;BME280;66868;42.708;23.404;2023-10-09T05:45:11;95976.78;;;13.37;nan
77702;BME280;66868;42.708;23.404;2023-10-09T05:47:46;95973.53;;;13.35;nan
77702;BME280;66868;42.708;23.404;2023-10-09T05:50:30;95974.91;;;13.41;nan
77702;BME280;66868;42.708;23.404;2023-10-09T05:53:19;95985.09;;;13.41;nan
77702;BME280;66868;42.708;23.404;2023-10-09T05:56:04;95973.59;;;13.34;nan
77702;BME280;66868;42.708;23.404;2023-10-09T05:58:48;96005.19;;;13.45;nan
77702;BME280;66868;42.708;23.404;2023-10-09T06:01:40;96006.22;;;13.41;nan
77702;BME280;66868;42.708;23.404;2023-10-09T06:04:23;95984.22;;;13.26;nan
77702;BME280;66868;42.708;23.404;2023-10-09T06:07:09;96012.00;;;13.45;nan
77702;BME280;66868;42.708;23.404;2023-10-09T06:09:39;96002.22;;;13.37;nan
77702;BME280;66868;42.708;23.404;2023-10-09T06:12:20;96014.03;;;13.38;nan
77702;BME280;66868;42.708;23.404;2023-10-09T06:14:57;96017.78;;;13.47;nan
77702;BME280;66868;42.708;23.404;2023-10-09T06:17:23;95962.19;;;13.09;nan
77702;BME280;66868;42.708;23.404;2023-10-09T06:19:50;96023.78;;;13.46;nan
77702;BME280;66868;42.708;23.404;2023-10-09T06:22:23;96024.28;;;13.52;nan
77702;BME280;66868;42.708;23.404;2023-10-09T06:25:01;96019.19;;;13.52;nan
77702;BME280;66868;42.708;23.404;2023-10-09T06:27:34;96026.50;;;13.58;nan
77702;BME280;66868;42.708;23.404;2023-10-09T06:30:00;96030.13;;;13.54;nan
77702;BME280;66868;42.708;23.404;2023-10-09T06:32:52;96019.94;;;13.54;nan
77702;BME280;66868;42.708;23.404;2023-10-09T06:35:33;96034.44;;;13.68;nan
77702;BME280;66868;42.708;23.404;2023-10-09T06:38:01;96016.78;;;13.65;nan
77702;BME280;66868;42.708;23.404;2023-10-09T06:40:36;96025.28;;;13.80;nan
77702;BME280;66868;42.708;23.404;2023-10-09T06:43:05;95976.06;;;13.65;nan
77702;BME280;66868;42.708;23.404;2023-10-09T06:45:43;96026.22;;;13.93;nan
77702;BME280;66868;42.708;23.404;2023-10-09T06:48:20;96031.66;;;13.87;nan
77702;BME280;66868;42.708;23.404;2023-10-09T06:51:06;96027.16;;;13.92;nan
77702;BME280;66868;42.708;23.404;2023-10-09T06:53:41;96037.50;;;14.03;nan
77702;BME280;66868;42.708;23.404;2023-10-09T06:56:28;96030.09;;;14.14;nan
77702;BME280;66868;42.708;23.404;2023-10-09T06:59:01;96031.72;;;14.15;nan
77702;BME280;66868;42.708;23.404;2023-10-09T07:01:30;96031.19;;;14.10;nan
77702;BME280;66868;42.708;23.404;2023-10-09T07:03:56;95962.91;;;13.73;nan
77702;BME280;66868;42.708;23.404;2023-10-09T07:06:40;96018.16;;;14.00;nan
77702;BME280;66868;42.708;23.404;2023-10-09T07:09:05;96038.94;;;14.23;nan
77702;BME280;66868;42.708;23.404;2023-10-09T07:11:40;95891.97;;;13.38;nan
77702;BME280;66868;42.708;23.404;2023-10-09T07:14:13;96040.69;;;14.36;nan
77702;BME280;66868;42.708;23.404;2023-10-09T07:16:57;96041.00;;;14.30;nan
77702;BME280;66868;42.708;23.404;2023-10-09T07:19:27;96024.28;;;14.26;nan
77702;BME280;66868;42.708;23.404;2023-10-09T07:21:59;96031.84;;;14.28;nan
77702;BME280;66868;42.708;23.404;2023-10-09T07:24:31;96027.88;;;14.38;nan
77702;BME280;66868;42.708;23.404;2023-10-09T07:27:19;96033.59;;;14.41;nan
77702;BME280;66868;42.708;23.404;2023-10-09T07:30:05;96035.25;;;14.42;nan
77702;BME280;66868;42.708;23.404;2023-10-09T07:32:53;96042.34;;;14.66;nan
77702;BME280;66868;42.708;23.404;2023-10-09T07:35:22;96029.97;;;14.59;nan
77702;BME280;66868;42.708;23.404;2023-10-09T07:38:06;96027.41;;;14.59;nan
77702;BME280;66868;42.708;23.404;2023-10-09T07:40:38;96036.25;;;14.68;nan
77702;BME280;66868;42.708;23.404;2023-10-09T07:43:23;96053.06;;;14.71;nan
77702;BME280;66868;42.708;23.404;2023-10-09T07:46:02;96047.97;;;14.71;nan
77702;BME280;66868;42.708;23.404;2023-10-09T07:49:02;96042.25;;;14.81;nan
77702;BME280;66868;42.708;23.404;2023-10-09T07:51:36;96036.50;;;14.78;nan
77702;BME280;66868;42.708;23.404;2023-10-09T07:54:02;96029.06;;;14.75;nan
77702;BME280;66868;42.708;23.404;2023-10-09T07:56:40;96036.25;;;14.82;nan
77702;BME280;66868;42.708;23.404;2023-10-09T07:59:11;96011.84;;;14.78;nan
77702;BME280;66868;42.708;23.404;2023-10-09T08:01:42;96052.88;;;15.16;nan
77702;BME280;66868;42.708;23.404;2023-10-09T08:04:25;96055.94;;;15.21;nan
77702;BME280;66868;42.708;23.404;2023-10-09T08:07:09;96042.78;;;15.27;nan
77702;BME280;66868;42.708;23.404;2023-10-09T08:09:37;96050.28;;;15.30;nan
77702;BME280;66868;42.708;23.404;2023-10-09T08:12:27;96045.69;;;15.35;nan
77702;BME280;66868;42.708;23.404;2023-10-09T08:15:23;96020.03;;;15.24;nan
77702;BME280;66868;42.708;23.404;2023-10-09T08:17:57;96040.13;;;15.43;nan
77702;BME280;66868;42.708;23.404;2023-10-09T08:20:43;95975.69;;;15.13;nan
77702;BME280;66868;42.708;23.404;2023-10-09T08:23:18;96035.28;;;15.53;nan
77702;BME280;66868;42.708;23.404;2023-10-09T08:26:02;96021.78;;;15.51;nan
77702;BME280;66868;42.708;23.404;2023-10-09T08:28:41;96017.50;;;15.51;nan
77702;BME280;66868;42.708;23.404;2023-10-09T08:31:16;96037.06;;;15.65;nan
77702;BME280;66868;42.708;23.404;2023-10-09T08:33:45;96028.88;;;15.60;nan
77702;BME280;66868;42.708;23.404;2023-10-09T08:36:22;96024.09;;;15.68;nan
77702;BME280;66868;42.708;23.404;2023-10-09T08:38:48;96013.69;;;15.71;nan
77702;BME280;66868;42.708;23.404;2023-10-09T08:41:14;96011.53;;;15.77;nan
77702;BME280;66868;42.708;23.404;2023-10-09T08:43:47;95989.81;;;15.72;nan
77702;BME280;66868;42.708;23.404;2023-10-09T08:46:15;96011.06;;;15.85;nan
77702;BME280;66868;42.708;23.404;2023-10-09T08:48:44;96008.53;;;15.85;nan
77702;BME280;66868;42.708;23.404;2023-10-09T08:51:10;96002.91;;;15.93;nan
77702;BME280;66868;42.708;23.404;2023-10-09T08:53:37;96000.78;;;15.99;nan
77702;BME280;66868;42.708;23.404;2023-10-09T08:56:12;96011.69;;;16.01;nan
77702;BME280;66868;42.708;23.404;2023-10-09T08:58:41;95993.50;;;16.06;nan
77702;BME280;66868;42.708;23.404;2023-10-09T09:01:06;95938.75;;;15.72;nan
77702;BME280;66868;42.708;23.404;2023-10-09T09:03:39;95995.75;;;16.10;nan
77702;BME280;66868;42.708;23.404;2023-10-09T09:06:06;95985.44;;;16.12;nan
77702;BME280;66868;42.708;23.404;2023-10-09T09:08:33;95977.19;;;16.08;nan
77702;BME280;66868;42.708;23.404;2023-10-09T09:13:43;95975.72;;;16.29;nan
77702;BME280;66868;42.708;23.404;2023-10-09T09:16:16;95994.53;;;16.54;nan
77702;BME280;66868;42.708;23.404;2023-10-09T09:19:08;95997.41;;;16.62;nan
77702;BME280;66868;42.708;23.404;2023-10-09T09:21:36;96007.63;;;16.62;nan
77702;BME280;66868;42.708;23.404;2023-10-09T09:24:11;95996.41;;;16.64;nan
77702;BME280;66868;42.708;23.404;2023-10-09T09:26:46;95991.97;;;16.54;nan
77702;BME280;66868;42.708;23.404;2023-10-09T09:29:15;95990.16;;;16.68;nan
77702;BME280;66868;42.708;23.404;2023-10-09T09:31:52;95981.22;;;16.74;nan
77702;BME280;66868;42.708;23.404;2023-10-09T09:34:19;95985.72;;;16.83;nan
77702;BME280;66868;42.708;23.404;2023-10-09T09:36:54;95983.63;;;16.88;nan
77702;BME280;66868;42.708;23.404;2023-10-09T09:39:25;95972.81;;;16.85;nan
77702;BME280;66868;42.708;23.404;2023-10-09T09:41:55;95976.78;;;17.01;nan
77702;BME280;66868;42.708;23.404;2023-10-09T09:44:23;95981.56;;;17.06;nan
77702;BME280;66868;42.708;23.404;2023-10-09T09:46:57;95964.66;;;17.03;nan
77702;BME280;66868;42.708;23.404;2023-10-09T09:49:27;95971.69;;;17.12;nan
77702;BME280;66868;42.708;23.404;2023-10-09T09:52:00;95967.72;;;17.08;nan
77702;BME280;66868;42.708;23.404;2023-10-09T09:54:26;95978.53;;;17.25;nan
77702;BME280;66868;42.708;23.404;2023-10-09T09:56:54;95970.78;;;17.37;nan
77702;BME280;66868;42.708;23.404;2023-10-09T09:59:24;95961.97;;;17.41;nan
77702;BME280;66868;42.708;23.404;2023-10-09T10:01:56;95939.75;;;17.42;nan
77702;BME280;66868;42.708;23.404;2023-10-09T10:04:26;95962.69;;;17.54;nan
77702;BME280;66868;42.708;23.404;2023-10-09T10:06:54;95929.00;;;17.37;nan
77702;BME280;66868;42.708;23.404;2023-10-09T10:09:40;95926.22;;;17.40;nan
77702;BME280;66868;42.708;23.404;2023-10-09T10:12:07;95946.84;;;17.73;nan
77702;BME280;66868;42.708;23.404;2023-10-09T10:14:56;95949.88;;;17.78;nan
77702;BME280;66868;42.708;23.404;2023-10-09T10:17:24;95931.03;;;17.90;nan
77702;BME280;66868;42.708;23.404;2023-10-09T10:22:42;95937.69;;;18.04;nan
77702;BME280;66868;42.708;23.404;2023-10-09T10:28:18;95912.66;;;18.19;nan
77702;BME280;66868;42.708;23.404;2023-10-09T10:30:54;95914.75;;;18.36;nan
77702;BME280;66868;42.708;23.404;2023-10-09T10:33:20;95894.72;;;18.30;nan
77702;BME280;66868;42.708;23.404;2023-10-09T10:35:48;95896.91;;;18.45;nan
77702;BME280;66868;42.708;23.404;2023-10-09T10:38:26;95878.75;;;18.48;nan
77702;BME280;66868;42.708;23.404;2023-10-09T10:41:19;95862.34;;;18.40;nan
77702;BME280;66868;42.708;23.404;2023-10-09T10:43:47;95868.16;;;18.53;nan
77702;BME280;66868;42.708;23.404;2023-10-09T10:46:14;95869.50;;;18.68;nan
77702;BME280;66868;42.708;23.404;2023-10-09T10:48:55;95873.94;;;18.77;nan
77702;BME280;66868;42.708;23.404;2023-10-09T10:51:41;95820.09;;;18.66;nan
77702;BME280;66868;42.708;23.404;2023-10-09T10:54:20;95866.94;;;19.11;nan
77702;BME280;66868;42.708;23.404;2023-10-09T10:57:28;95845.91;;;19.17;nan
77702;BME280;66868;42.708;23.404;2023-10-09T10:59:55;95858.38;;;19.22;nan
77702;BME280;66868;42.708;23.404;2023-10-09T11:02:43;95835.19;;;19.33;nan
77702;BME280;66868;42.708;23.404;2023-10-09T11:05:09;95862.63;;;19.64;nan
77702;BME280;66868;42.708;23.404;2023-10-09T11:07:48;95852.56;;;19.61;nan
77702;BME280;66868;42.708;23.404;2023-10-09T11:10:22;95844.88;;;19.61;nan
77702;BME280;66868;42.708;23.404;2023-10-09T11:12:53;95827.16;;;19.58;nan
77702;BME280;66868;42.708;23.404;2023-10-09T11:15:33;95829.00;;;19.77;nan
77702;BME280;66868;42.708;23.404;2023-10-09T11:18:15;95821.03;;;19.80;nan
77702;BME280;66868;42.708;23.404;2023-10-09T11:20:55;95818.25;;;19.93;nan
77702;BME280;66868;42.708;23.404;2023-10-09T11:23:31;95815.34;;;20.07;nan
77702;BME280;66868;42.708;23.404;2023-10-09T11:26:03;95814.28;;;20.19;nan
77702;BME280;66868;42.708;23.404;2023-10-09T11:29:11;95804.00;;;20.19;nan
77702;BME280;66868;42.708;23.404;2023-10-09T11:31:41;95805.63;;;20.20;nan
77702;BME280;66868;42.708;23.404;2023-10-09T11:34:20;95816.53;;;20.33;nan
77702;BME280;66868;42.708;23.404;2023-10-09T11:36:59;95814.09;;;20.41;nan
77702;BME280;66868;42.708;23.404;2023-10-09T11:39:26;95813.81;;;20.44;nan
77702;BME280;66868;42.708;23.404;2023-10-09T11:42:07;95810.34;;;20.64;nan
77702;BME280;66868;42.708;23.404;2023-10-09T11:44:38;95801.41;;;20.68;nan
77702;BME280;66868;42.708;23.404;2023-10-09T11:47:20;95801.81;;;20.83;nan
77702;BME280;66868;42.708;23.404;2023-10-09T11:49:56;95790.03;;;20.90;nan
77702;BME280;66868;42.708;23.404;2023-10-09T11:52:32;95783.00;;;21.02;nan
77702;BME280;66868;42.708;23.404;2023-10-09T11:55:05;95777.16;;;21.19;nan
77702;BME280;66868;42.708;23.404;2023-10-09T11:57:33;95768.06;;;21.34;nan
77702;BME280;66868;42.708;23.404;2023-10-09T12:00:03;95776.78;;;21.60;nan
77702;BME280;66868;42.708;23.404;2023-10-09T12:02:56;95769.25;;;21.86;nan
77702;BME280;66868;42.708;23.404;2023-10-09T12:05:21;95732.16;;;21.87;nan
77702;BME280;66868;42.708;23.404;2023-10-09T12:07:48;95749.91;;;22.27;nan
77702;BME280;66868;42.708;23.404;2023-10-09T12:10:22;95737.78;;;22.73;nan
77702;BME280;66868;42.708;23.404;2023-10-09T12:12:54;95619.25;;;22.44;nan
77702;BME280;66868;42.708;23.404;2023-10-09T12:15:23;95747.16;;;23.95;nan
77702;BME280;66868;42.708;23.404;2023-10-09T12:17:50;95700.22;;;24.56;nan
77702;BME280;66868;42.708;23.404;2023-10-09T12:20:19;95744.56;;;25.50;nan
77702;BME280;66868;42.708;23.404;2023-10-09T12:23:01;95756.22;;;26.48;nan
77702;BME280;66868;42.708;23.404;2023-10-09T12:25:32;95749.09;;;27.33;nan
77702;BME280;66868;42.708;23.404;2023-10-09T12:27:58;95750.75;;;28.22;nan
77702;BME280;66868;42.708;23.404;2023-10-09T12:30:26;95717.03;;;28.35;nan
77702;BME280;66868;42.708;23.404;2023-10-09T12:32:56;95755.22;;;29.49;nan
77702;BME280;66868;42.708;23.404;2023-10-09T12:35:25;95746.19;;;29.86;nan
77702;BME280;66868;42.708;23.404;2023-10-09T12:37:52;95704.69;;;30.78;nan
77702;BME280;66868;42.708;23.404;2023-10-09T12:40:23;95763.19;;;32.15;nan
77702;BME280;66868;42.708;23.404;2023-10-09T12:42:56;95757.88;;;32.35;nan
77702;BME280;66868;42.708;23.404;2023-10-09T12:45:25;95742.88;;;32.86;nan
77702;BME280;66868;42.708;23.404;2023-10-09T12:47:58;95762.38;;;33.28;nan
77702;BME280;66868;42.708;23.404;2023-10-09T12:50:33;95734.63;;;33.57;nan
77702;BME280;66868;42.708;23.404;2023-10-09T12:52:59;95737.84;;;33.59;nan
77702;BME280;66868;42.708;23.404;2023-10-09T12:55:28;95735.69;;;34.29;nan
77702;BME280;66868;42.708;23.404;2023-10-09T12:57:59;95741.78;;;35.01;nan
77702;BME280;66868;42.708;23.404;2023-10-09T13:00:26;95724.97;;;34.12;nan
77702;BME280;66868;42.708;23.404;2023-10-09T13:02:52;95729.09;;;34.38;nan
77702;BME280;66868;42.708;23.404;2023-10-09T13:05:18;95725.13;;;35.19;nan
77702;BME280;66868;42.708;23.404;2023-10-09T13:07:53;95719.16;;;34.70;nan
77702;BME280;66868;42.708;23.404;2023-10-09T13:10:21;95704.25;;;34.64;nan
77702;BME280;66868;42.708;23.404;2023-10-09T13:12:49;95709.81;;;34.44;nan
77702;BME280;66868;42.708;23.404;2023-10-09T13:15:20;95704.00;;;33.88;nan
77702;BME280;66868;42.708;23.404;2023-10-09T13:17:46;95707.34;;;34.31;nan
77702;BME280;66868;42.708;23.404;2023-10-09T13:20:11;95694.91;;;35.33;nan
77702;BME280;66868;42.708;23.404;2023-10-09T13:22:42;95710.66;;;35.91;nan
77702;BME280;66868;42.708;23.404;2023-10-09T13:25:11;95696.22;;;36.62;nan
77702;BME280;66868;42.708;23.404;2023-10-09T13:27:44;95671.94;;;35.57;nan
77702;BME280;66868;42.708;23.404;2023-10-09T13:30:17;95708.47;;;36.00;nan
77702;BME280;66868;42.708;23.404;2023-10-09T13:32:49;95687.16;;;36.58;nan
77702;BME280;66868;42.708;23.404;2023-10-09T13:35:18;95698.53;;;35.43;nan
77702;BME280;66868;42.708;23.404;2023-10-09T13:37:47;95687.81;;;34.39;nan
77702;BME280;66868;42.708;23.404;2023-10-09T13:40:22;95685.06;;;34.45;nan
77702;BME280;66868;42.708;23.404;2023-10-09T13:42:54;95690.59;;;34.97;nan
77702;BME280;66868;42.708;23.404;2023-10-09T13:45:27;95689.03;;;34.96;nan
77702;BME280;66868;42.708;23.404;2023-10-09T13:47:56;95677.72;;;34.66;nan
77702;BME280;66868;42.708;23.404;2023-10-09T13:50:25;95679.28;;;34.55;nan
77702;BME280;66868;42.708;23.404;2023-10-09T13:52:57;95671.44;;;34.37;nan
77702;BME280;66868;42.708;23.404;2023-10-09T13:55:23;95659.84;;;33.96;nan
77702;BME280;66868;42.708;23.404;2023-10-09T13:57:57;95657.69;;;34.05;nan
77702;BME280;66868;42.708;23.404;2023-10-09T14:00:23;95653.44;;;34.22;nan